ORER/EBL METAR and TAF weather

Enter ICAO airport designator
Station Type Date Time Source
ORER METAR 2020/07/11 20:00 UTC NOAA

ORER 112000Z 03006KT 9000 NSC 30/08 Q1002 NOSIG


Station Type Date Time Source
ORER Decoded METAR 2020/07/11 20:00 UTC NOAA

Station name not available
Jul 11, 2020 - 04:00 PM EDT / 2020.07.11 2000 UTC
Wind: from the NNE (030 degrees) at 7 MPH (6 KT):0
Visibility: 5 mile(s):0
Temperature: 86 F (30 C)
Dew Point: 46 F (8 C)
Relative Humidity: 25%
Pressure (altimeter): 29.59 in. Hg (1002 hPa)
ob: ORER 112000Z 03006KT 9000 NSC 30/08 Q1002 NOSIG
cycle: 20

Station Type Date Time Source
ORER TAF 2020/07/11 18:24 UTC NOAA

TAF ORER 111700Z 1118/1218 36005KT 9000 FEW045

Example: see airport list